sensor_id;sensor_type;location;lat;lon;timestamp;P1;durP1;ratioP1;P2;durP2;ratioP2
33421;SDS011;19763;55.798;37.782;2023-10-19T00:02:07;7.38;;;5.50;;
33421;SDS011;19763;55.798;37.782;2023-10-19T00:04:33;6.38;;;5.18;;
33421;SDS011;19763;55.798;37.782;2023-10-19T00:07:03;6.57;;;5.35;;
33421;SDS011;19763;55.798;37.782;2023-10-19T00:09:31;8.77;;;6.50;;
33421;SDS011;19763;55.798;37.782;2023-10-19T00:12:03;8.18;;;6.00;;
33421;SDS011;19763;55.798;37.782;2023-10-19T00:14:31;9.70;;;5.38;;
33421;SDS011;19763;55.798;37.782;2023-10-19T00:16:57;11.57;;;5.93;;
33421;SDS011;19763;55.798;37.782;2023-10-19T00:19:26;6.47;;;5.43;;
33421;SDS011;19763;55.798;37.782;2023-10-19T00:21:55;8.38;;;5.18;;
33421;SDS011;19763;55.798;37.782;2023-10-19T00:24:27;8.65;;;5.47;;
33421;SDS011;19763;55.798;37.782;2023-10-19T00:26:53;7.75;;;5.50;;
33421;SDS011;19763;55.798;37.782;2023-10-19T00:29:20;8.00;;;5.45;;
33421;SDS011;19763;55.798;37.782;2023-10-19T00:32:05;5.78;;;5.25;;
33421;SDS011;19763;55.798;37.782;2023-10-19T00:34:31;7.10;;;6.28;;
33421;SDS011;19763;55.798;37.782;2023-10-19T00:36:58;7.43;;;6.28;;
33421;SDS011;19763;55.798;37.782;2023-10-19T00:39:36;6.72;;;5.45;;
33421;SDS011;19763;55.798;37.782;2023-10-19T00:42:19;7.15;;;5.75;;
33421;SDS011;19763;55.798;37.782;2023-10-19T00:44:49;6.55;;;5.85;;
33421;SDS011;19763;55.798;37.782;2023-10-19T00:47:15;6.50;;;5.90;;
33421;SDS011;19763;55.798;37.782;2023-10-19T00:49:47;7.32;;;6.35;;
33421;SDS011;19763;55.798;37.782;2023-10-19T00:52:14;7.53;;;5.22;;
33421;SDS011;19763;55.798;37.782;2023-10-19T00:54:48;6.63;;;5.57;;
33421;SDS011;19763;55.798;37.782;2023-10-19T00:57:18;6.03;;;5.45;;
33421;SDS011;19763;55.798;37.782;2023-10-19T01:00:02;6.55;;;5.55;;
33421;SDS011;19763;55.798;37.782;2023-10-19T01:02:37;6.30;;;5.70;;
33421;SDS011;19763;55.798;37.782;2023-10-19T01:05:11;5.30;;;4.80;;
33421;SDS011;19763;55.798;37.782;2023-10-19T01:07:40;6.82;;;5.80;;
33421;SDS011;19763;55.798;37.782;2023-10-19T01:10:06;6.55;;;5.50;;
33421;SDS011;19763;55.798;37.782;2023-10-19T01:12:33;5.68;;;5.13;;
33421;SDS011;19763;55.798;37.782;2023-10-19T01:17:44;6.32;;;5.60;;
33421;SDS011;19763;55.798;37.782;2023-10-19T01:20:12;5.90;;;4.70;;
33421;SDS011;19763;55.798;37.782;2023-10-19T01:25:46;5.70;;;5.10;;
33421;SDS011;19763;55.798;37.782;2023-10-19T01:28:23;6.47;;;5.28;;
33421;SDS011;19763;55.798;37.782;2023-10-19T01:31:13;4.82;;;4.43;;
33421;SDS011;19763;55.798;37.782;2023-10-19T01:33:48;6.35;;;5.30;;
33421;SDS011;19763;55.798;37.782;2023-10-19T01:36:14;5.97;;;5.35;;
33421;SDS011;19763;55.798;37.782;2023-10-19T01:38:42;5.35;;;4.82;;
33421;SDS011;19763;55.798;37.782;2023-10-19T01:41:08;6.30;;;5.57;;
33421;SDS011;19763;55.798;37.782;2023-10-19T01:43:44;6.90;;;5.45;;
33421;SDS011;19763;55.798;37.782;2023-10-19T01:46:12;5.75;;;4.72;;
33421;SDS011;19763;55.798;37.782;2023-10-19T01:48:47;7.13;;;5.88;;
33421;SDS011;19763;55.798;37.782;2023-10-19T01:51:23;6.35;;;5.72;;
33421;SDS011;19763;55.798;37.782;2023-10-19T01:53:52;6.90;;;5.55;;
33421;SDS011;19763;55.798;37.782;2023-10-19T01:56:20;4.82;;;4.43;;
33421;SDS011;19763;55.798;37.782;2023-10-19T01:58:47;5.50;;;5.00;;
33421;SDS011;19763;55.798;37.782;2023-10-19T02:01:14;7.55;;;5.60;;
33421;SDS011;19763;55.798;37.782;2023-10-19T02:03:53;6.00;;;5.40;;
33421;SDS011;19763;55.798;37.782;2023-10-19T02:06:24;6.25;;;5.75;;
33421;SDS011;19763;55.798;37.782;2023-10-19T02:09:12;8.02;;;5.97;;
33421;SDS011;19763;55.798;37.782;2023-10-19T02:11:41;7.32;;;6.40;;
33421;SDS011;19763;55.798;37.782;2023-10-19T02:14:08;5.82;;;5.32;;
33421;SDS011;19763;55.798;37.782;2023-10-19T02:16:49;5.70;;;5.10;;
33421;SDS011;19763;55.798;37.782;2023-10-19T02:19:17;6.55;;;5.88;;
33421;SDS011;19763;55.798;37.782;2023-10-19T02:21:44;12.00;;;9.60;;
33421;SDS011;19763;55.798;37.782;2023-10-19T02:24:13;6.97;;;6.28;;
33421;SDS011;19763;55.798;37.782;2023-10-19T02:26:43;7.60;;;6.25;;
33421;SDS011;19763;55.798;37.782;2023-10-19T02:29:10;6.35;;;5.60;;
33421;SDS011;19763;55.798;37.782;2023-10-19T02:31:36;7.13;;;6.43;;
33421;SDS011;19763;55.798;37.782;2023-10-19T02:34:06;7.25;;;5.63;;
33421;SDS011;19763;55.798;37.782;2023-10-19T02:36:35;6.72;;;6.00;;
33421;SDS011;19763;55.798;37.782;2023-10-19T02:39:06;7.28;;;6.57;;
33421;SDS011;19763;55.798;37.782;2023-10-19T02:41:34;7.38;;;6.18;;
33421;SDS011;19763;55.798;37.782;2023-10-19T02:44:03;8.20;;;6.22;;
33421;SDS011;19763;55.798;37.782;2023-10-19T02:46:30;7.30;;;6.25;;
33421;SDS011;19763;55.798;37.782;2023-10-19T02:49:06;8.20;;;6.32;;
33421;SDS011;19763;55.798;37.782;2023-10-19T02:51:43;8.55;;;6.38;;
33421;SDS011;19763;55.798;37.782;2023-10-19T02:54:16;6.05;;;5.55;;
33421;SDS011;19763;55.798;37.782;2023-10-19T02:56:55;8.18;;;6.40;;
33421;SDS011;19763;55.798;37.782;2023-10-19T02:59:25;7.45;;;6.63;;
33421;SDS011;19763;55.798;37.782;2023-10-19T03:01:54;15.18;;;6.57;;
33421;SDS011;19763;55.798;37.782;2023-10-19T03:04:36;7.05;;;6.30;;
33421;SDS011;19763;55.798;37.782;2023-10-19T03:07:06;6.40;;;5.80;;
33421;SDS011;19763;55.798;37.782;2023-10-19T03:09:33;7.22;;;6.38;;
33421;SDS011;19763;55.798;37.782;2023-10-19T03:12:03;7.40;;;6.38;;
33421;SDS011;19763;55.798;37.782;2023-10-19T03:14:36;7.10;;;6.40;;
33421;SDS011;19763;55.798;37.782;2023-10-19T03:17:02;7.00;;;6.28;;
33421;SDS011;19763;55.798;37.782;2023-10-19T03:19:29;7.43;;;6.65;;
33421;SDS011;19763;55.798;37.782;2023-10-19T03:21:55;9.25;;;7.03;;
33421;SDS011;19763;55.798;37.782;2023-10-19T03:24:21;8.05;;;6.63;;
33421;SDS011;19763;55.798;37.782;2023-10-19T03:27:06;7.32;;;6.63;;
33421;SDS011;19763;55.798;37.782;2023-10-19T03:29:47;9.38;;;7.45;;
33421;SDS011;19763;55.798;37.782;2023-10-19T03:32:19;7.90;;;7.10;;
33421;SDS011;19763;55.798;37.782;2023-10-19T03:34:47;7.50;;;6.90;;
33421;SDS011;19763;55.798;37.782;2023-10-19T03:37:20;7.38;;;6.65;;
33421;SDS011;19763;55.798;37.782;2023-10-19T03:39:50;8.18;;;7.00;;
33421;SDS011;19763;55.798;37.782;2023-10-19T03:42:16;9.18;;;7.40;;
33421;SDS011;19763;55.798;37.782;2023-10-19T03:44:42;9.50;;;7.68;;
33421;SDS011;19763;55.798;37.782;2023-10-19T03:47:11;8.20;;;7.47;;
33421;SDS011;19763;55.798;37.782;2023-10-19T03:49:38;8.05;;;7.35;;
33421;SDS011;19763;55.798;37.782;2023-10-19T03:52:07;7.25;;;6.55;;
33421;SDS011;19763;55.798;37.782;2023-10-19T03:54:37;7.88;;;7.07;;
33421;SDS011;19763;55.798;37.782;2023-10-19T03:57:10;9.30;;;6.88;;
33421;SDS011;19763;55.798;37.782;2023-10-19T03:59:41;7.70;;;7.00;;
33421;SDS011;19763;55.798;37.782;2023-10-19T04:02:07;8.38;;;7.57;;
33421;SDS011;19763;55.798;37.782;2023-10-19T04:04:39;8.82;;;7.03;;
33421;SDS011;19763;55.798;37.782;2023-10-19T04:07:09;8.40;;;6.93;;
33421;SDS011;19763;55.798;37.782;2023-10-19T04:09:56;7.90;;;7.20;;
33421;SDS011;19763;55.798;37.782;2023-10-19T04:12:36;7.88;;;7.18;;
33421;SDS011;19763;55.798;37.782;2023-10-19T04:15:08;7.88;;;7.18;;
33421;SDS011;19763;55.798;37.782;2023-10-19T04:17:44;8.07;;;7.15;;
33421;SDS011;19763;55.798;37.782;2023-10-19T04:20:11;8.50;;;7.07;;
33421;SDS011;19763;55.798;37.782;2023-10-19T04:22:42;9.60;;;7.68;;
33421;SDS011;19763;55.798;37.782;2023-10-19T04:25:11;7.97;;;7.18;;
33421;SDS011;19763;55.798;37.782;2023-10-19T04:27:38;8.70;;;7.90;;
33421;SDS011;19763;55.798;37.782;2023-10-19T04:30:08;7.90;;;7.20;;
33421;SDS011;19763;55.798;37.782;2023-10-19T04:32:48;8.57;;;7.78;;
33421;SDS011;19763;55.798;37.782;2023-10-19T04:35:18;9.63;;;8.80;;
33421;SDS011;19763;55.798;37.782;2023-10-19T04:37:51;8.27;;;7.57;;
33421;SDS011;19763;55.798;37.782;2023-10-19T04:40:21;8.95;;;8.15;;
33421;SDS011;19763;55.798;37.782;2023-10-19T04:42:49;8.15;;;7.38;;
33421;SDS011;19763;55.798;37.782;2023-10-19T04:45:16;8.07;;;7.38;;
33421;SDS011;19763;55.798;37.782;2023-10-19T04:47:42;9.88;;;8.80;;
33421;SDS011;19763;55.798;37.782;2023-10-19T04:50:07;9.60;;;8.68;;
33421;SDS011;19763;55.798;37.782;2023-10-19T04:52:36;9.35;;;8.45;;
33421;SDS011;19763;55.798;37.782;2023-10-19T04:55:02;9.60;;;8.70;;
33421;SDS011;19763;55.798;37.782;2023-10-19T04:57:30;9.00;;;8.20;;
33421;SDS011;19763;55.798;37.782;2023-10-19T04:59:57;9.30;;;8.35;;
33421;SDS011;19763;55.798;37.782;2023-10-19T05:02:23;9.07;;;8.10;;
33421;SDS011;19763;55.798;37.782;2023-10-19T05:04:48;9.25;;;8.35;;
33421;SDS011;19763;55.798;37.782;2023-10-19T05:07:14;8.93;;;7.95;;
33421;SDS011;19763;55.798;37.782;2023-10-19T05:09:42;10.18;;;9.05;;
33421;SDS011;19763;55.798;37.782;2023-10-19T05:12:09;9.60;;;8.63;;
33421;SDS011;19763;55.798;37.782;2023-10-19T05:14:35;10.00;;;9.00;;
33421;SDS011;19763;55.798;37.782;2023-10-19T05:17:02;9.02;;;8.13;;
33421;SDS011;19763;55.798;37.782;2023-10-19T05:19:30;10.30;;;9.18;;
33421;SDS011;19763;55.798;37.782;2023-10-19T05:21:56;10.52;;;8.68;;
33421;SDS011;19763;55.798;37.782;2023-10-19T05:24:22;9.43;;;8.43;;
33421;SDS011;19763;55.798;37.782;2023-10-19T05:26:48;9.55;;;8.63;;
33421;SDS011;19763;55.798;37.782;2023-10-19T05:29:14;10.00;;;9.02;;
33421;SDS011;19763;55.798;37.782;2023-10-19T05:31:40;10.02;;;9.02;;
33421;SDS011;19763;55.798;37.782;2023-10-19T05:34:06;9.23;;;8.43;;
33421;SDS011;19763;55.798;37.782;2023-10-19T05:36:33;11.00;;;10.00;;
33421;SDS011;19763;55.798;37.782;2023-10-19T05:38:59;10.52;;;9.50;;
33421;SDS011;19763;55.798;37.782;2023-10-19T05:41:25;13.25;;;10.85;;
33421;SDS011;19763;55.798;37.782;2023-10-19T05:43:52;10.05;;;9.05;;
33421;SDS011;19763;55.798;37.782;2023-10-19T05:46:18;9.45;;;8.50;;
33421;SDS011;19763;55.798;37.782;2023-10-19T05:48:47;10.60;;;9.23;;
33421;SDS011;19763;55.798;37.782;2023-10-19T05:51:14;9.77;;;8.77;;
33421;SDS011;19763;55.798;37.782;2023-10-19T05:53:40;10.00;;;9.00;;
33421;SDS011;19763;55.798;37.782;2023-10-19T05:56:06;8.95;;;8.15;;
33421;SDS011;19763;55.798;37.782;2023-10-19T05:58:32;9.75;;;8.85;;
33421;SDS011;19763;55.798;37.782;2023-10-19T06:00:58;9.50;;;8.57;;
33421;SDS011;19763;55.798;37.782;2023-10-19T06:03:24;9.45;;;8.55;;
33421;SDS011;19763;55.798;37.782;2023-10-19T06:05:50;9.90;;;8.88;;
33421;SDS011;19763;55.798;37.782;2023-10-19T06:08:16;9.98;;;8.88;;
33421;SDS011;19763;55.798;37.782;2023-10-19T06:10:41;8.70;;;7.80;;
33421;SDS011;19763;55.798;37.782;2023-10-19T06:13:07;9.20;;;8.10;;
33421;SDS011;19763;55.798;37.782;2023-10-19T06:15:35;9.60;;;8.65;;
33421;SDS011;19763;55.798;37.782;2023-10-19T06:18:01;9.02;;;7.85;;
33421;SDS011;19763;55.798;37.782;2023-10-19T06:20:26;8.20;;;7.15;;
33421;SDS011;19763;55.798;37.782;2023-10-19T06:25:22;7.47;;;6.78;;
33421;SDS011;19763;55.798;37.782;2023-10-19T06:27:49;7.38;;;6.50;;
33421;SDS011;19763;55.798;37.782;2023-10-19T06:30:17;8.00;;;7.25;;
33421;SDS011;19763;55.798;37.782;2023-10-19T06:32:50;9.02;;;7.30;;
33421;SDS011;19763;55.798;37.782;2023-10-19T06:35:18;8.30;;;7.50;;
33421;SDS011;19763;55.798;37.782;2023-10-19T06:37:44;7.90;;;7.10;;
33421;SDS011;19763;55.798;37.782;2023-10-19T06:40:11;8.40;;;7.50;;
33421;SDS011;19763;55.798;37.782;2023-10-19T06:42:40;7.78;;;7.07;;
33421;SDS011;19763;55.798;37.782;2023-10-19T06:45:06;7.75;;;6.70;;
33421;SDS011;19763;55.798;37.782;2023-10-19T06:47:33;7.70;;;6.93;;
33421;SDS011;19763;55.798;37.782;2023-10-19T06:50:04;8.65;;;7.25;;
33421;SDS011;19763;55.798;37.782;2023-10-19T06:52:32;9.00;;;7.53;;
33421;SDS011;19763;55.798;37.782;2023-10-19T06:55:02;7.97;;;7.28;;
33421;SDS011;19763;55.798;37.782;2023-10-19T06:57:30;8.25;;;7.18;;
33421;SDS011;19763;55.798;37.782;2023-10-19T06:59:58;8.13;;;7.28;;
33421;SDS011;19763;55.798;37.782;2023-10-19T07:02:24;8.85;;;7.95;;
33421;SDS011;19763;55.798;37.782;2023-10-19T07:04:52;9.30;;;7.53;;
33421;SDS011;19763;55.798;37.782;2023-10-19T07:07:17;9.57;;;8.45;;
33421;SDS011;19763;55.798;37.782;2023-10-19T07:09:43;8.43;;;7.00;;
33421;SDS011;19763;55.798;37.782;2023-10-19T07:12:09;9.50;;;8.48;;
33421;SDS011;19763;55.798;37.782;2023-10-19T07:14:35;9.10;;;7.75;;
33421;SDS011;19763;55.798;37.782;2023-10-19T07:17:01;10.73;;;8.60;;
33421;SDS011;19763;55.798;37.782;2023-10-19T07:19:26;9.77;;;8.77;;
33421;SDS011;19763;55.798;37.782;2023-10-19T07:21:52;8.75;;;7.85;;
33421;SDS011;19763;55.798;37.782;2023-10-19T07:24:24;9.05;;;8.05;;
33421;SDS011;19763;55.798;37.782;2023-10-19T07:26:50;8.52;;;7.70;;
33421;SDS011;19763;55.798;37.782;2023-10-19T07:29:21;9.20;;;7.53;;
33421;SDS011;19763;55.798;37.782;2023-10-19T07:31:47;8.00;;;7.20;;
33421;SDS011;19763;55.798;37.782;2023-10-19T07:34:13;7.40;;;6.70;;
33421;SDS011;19763;55.798;37.782;2023-10-19T07:36:41;7.22;;;6.50;;
33421;SDS011;19763;55.798;37.782;2023-10-19T07:39:10;7.13;;;6.05;;
33421;SDS011;19763;55.798;37.782;2023-10-19T07:41:44;6.82;;;6.22;;
33421;SDS011;19763;55.798;37.782;2023-10-19T07:44:09;10.88;;;6.85;;
33421;SDS011;19763;55.798;37.782;2023-10-19T07:46:37;6.20;;;5.60;;
33421;SDS011;19763;55.798;37.782;2023-10-19T07:49:03;6.93;;;6.22;;
33421;SDS011;19763;55.798;37.782;2023-10-19T07:51:29;6.40;;;5.80;;
33421;SDS011;19763;55.798;37.782;2023-10-19T07:53:55;7.88;;;5.88;;
33421;SDS011;19763;55.798;37.782;2023-10-19T07:56:22;6.97;;;6.30;;
33421;SDS011;19763;55.798;37.782;2023-10-19T07:58:48;6.95;;;6.13;;
33421;SDS011;19763;55.798;37.782;2023-10-19T08:01:15;5.90;;;5.40;;
33421;SDS011;19763;55.798;37.782;2023-10-19T08:03:40;7.28;;;6.47;;
33421;SDS011;19763;55.798;37.782;2023-10-19T08:06:06;8.25;;;6.80;;
33421;SDS011;19763;55.798;37.782;2023-10-19T08:08:32;8.50;;;6.43;;
33421;SDS011;19763;55.798;37.782;2023-10-19T08:11:02;10.20;;;8.55;;
33421;SDS011;19763;55.798;37.782;2023-10-19T08:13:27;9.32;;;8.30;;
33421;SDS011;19763;55.798;37.782;2023-10-19T08:15:53;9.10;;;8.10;;
33421;SDS011;19763;55.798;37.782;2023-10-19T08:18:20;9.80;;;8.02;;
33421;SDS011;19763;55.798;37.782;2023-10-19T08:20:45;9.05;;;7.68;;
33421;SDS011;19763;55.798;37.782;2023-10-19T08:23:11;8.30;;;7.53;;
33421;SDS011;19763;55.798;37.782;2023-10-19T08:25:48;9.23;;;8.32;;
33421;SDS011;19763;55.798;37.782;2023-10-19T08:28:16;8.88;;;8.10;;
33421;SDS011;19763;55.798;37.782;2023-10-19T08:30:42;9.38;;;8.35;;
33421;SDS011;19763;55.798;37.782;2023-10-19T08:33:10;9.80;;;8.48;;
33421;SDS011;19763;55.798;37.782;2023-10-19T08:35:39;9.18;;;8.30;;
33421;SDS011;19763;55.798;37.782;2023-10-19T08:38:04;9.18;;;6.28;;
33421;SDS011;19763;55.798;37.782;2023-10-19T08:40:36;7.90;;;7.20;;
33421;SDS011;19763;55.798;37.782;2023-10-19T08:43:03;8.93;;;7.60;;
33421;SDS011;19763;55.798;37.782;2023-10-19T08:45:30;8.98;;;8.07;;
33421;SDS011;19763;55.798;37.782;2023-10-19T08:47:59;12.70;;;8.55;;
33421;SDS011;19763;55.798;37.782;2023-10-19T08:50:31;10.32;;;9.20;;
33421;SDS011;19763;55.798;37.782;2023-10-19T08:53:01;11.63;;;9.50;;
33421;SDS011;19763;55.798;37.782;2023-10-19T08:55:28;9.43;;;8.52;;
33421;SDS011;19763;55.798;37.782;2023-10-19T08:57:55;9.70;;;6.75;;
33421;SDS011;19763;55.798;37.782;2023-10-19T09:00:24;7.88;;;6.80;;
33421;SDS011;19763;55.798;37.782;2023-10-19T09:02:55;7.50;;;6.80;;
33421;SDS011;19763;55.798;37.782;2023-10-19T09:05:22;7.15;;;6.45;;
33421;SDS011;19763;55.798;37.782;2023-10-19T09:07:49;8.20;;;7.00;;
33421;SDS011;19763;55.798;37.782;2023-10-19T09:10:22;8.13;;;7.28;;
33421;SDS011;19763;55.798;37.782;2023-10-19T09:12:59;8.18;;;7.38;;
33421;SDS011;19763;55.798;37.782;2023-10-19T09:15:30;7.07;;;6.40;;
33421;SDS011;19763;55.798;37.782;2023-10-19T09:20:41;8.00;;;6.35;;
33421;SDS011;19763;55.798;37.782;2023-10-19T09:23:18;7.30;;;6.10;;
33421;SDS011;19763;55.798;37.782;2023-10-19T09:25:46;6.38;;;5.78;;
33421;SDS011;19763;55.798;37.782;2023-10-19T09:28:12;6.35;;;5.05;;
33421;SDS011;19763;55.798;37.782;2023-10-19T09:30:39;4.43;;;4.03;;
33421;SDS011;19763;55.798;37.782;2023-10-19T09:33:05;5.47;;;4.97;;
33421;SDS011;19763;55.798;37.782;2023-10-19T09:35:34;5.38;;;4.88;;
33421;SDS011;19763;55.798;37.782;2023-10-19T09:38:02;5.78;;;5.18;;
33421;SDS011;19763;55.798;37.782;2023-10-19T09:40:30;7.47;;;5.53;;
33421;SDS011;19763;55.798;37.782;2023-10-19T09:42:56;6.40;;;5.80;;
33421;SDS011;19763;55.798;37.782;2023-10-19T09:45:23;5.97;;;5.45;;
33421;SDS011;19763;55.798;37.782;2023-10-19T09:47:55;7.07;;;6.38;;
33421;SDS011;19763;55.798;37.782;2023-10-19T09:50:21;14.60;;;11.25;;
33421;SDS011;19763;55.798;37.782;2023-10-19T09:52:47;7.13;;;6.15;;
33421;SDS011;19763;55.798;37.782;2023-10-19T09:58:06;8.93;;;7.30;;
33421;SDS011;19763;55.798;37.782;2023-10-19T10:00:43;9.47;;;7.27;;
33421;SDS011;19763;55.798;37.782;2023-10-19T10:06:08;8.88;;;8.07;;
33421;SDS011;19763;55.798;37.782;2023-10-19T10:08:38;9.85;;;7.90;;
33421;SDS011;19763;55.798;37.782;2023-10-19T10:11:15;8.85;;;7.53;;
33421;SDS011;19763;55.798;37.782;2023-10-19T10:13:43;9.90;;;8.02;;
33421;SDS011;19763;55.798;37.782;2023-10-19T10:16:12;13.23;;;9.82;;
33421;SDS011;19763;55.798;37.782;2023-10-19T10:18:40;9.73;;;8.75;;
33421;SDS011;19763;55.798;37.782;2023-10-19T10:23:50;10.18;;;8.23;;
33421;SDS011;19763;55.798;37.782;2023-10-19T10:26:19;9.73;;;8.00;;
33421;SDS011;19763;55.798;37.782;2023-10-19T10:31:49;8.10;;;7.30;;
33421;SDS011;19763;55.798;37.782;2023-10-19T10:39:29;10.10;;;6.90;;
33421;SDS011;19763;55.798;37.782;2023-10-19T10:41:58;8.00;;;7.20;;
33421;SDS011;19763;55.798;37.782;2023-10-19T10:44:41;9.20;;;7.63;;
33421;SDS011;19763;55.798;37.782;2023-10-19T10:47:09;9.18;;;7.20;;
33421;SDS011;19763;55.798;37.782;2023-10-19T10:49:57;7.70;;;7.00;;
33421;SDS011;19763;55.798;37.782;2023-10-19T10:52:26;9.45;;;7.63;;
33421;SDS011;19763;55.798;37.782;2023-10-19T10:54:55;8.80;;;6.82;;
33421;SDS011;19763;55.798;37.782;2023-10-19T10:57:22;7.15;;;6.38;;
33421;SDS011;19763;55.798;37.782;2023-10-19T11:00:01;7.10;;;6.40;;
33421;SDS011;19763;55.798;37.782;2023-10-19T11:03:06;6.28;;;5.65;;
33421;SDS011;19763;55.798;37.782;2023-10-19T11:05:35;6.30;;;5.45;;
33421;SDS011;19763;55.798;37.782;2023-10-19T11:08:05;5.60;;;5.00;;
33421;SDS011;19763;55.798;37.782;2023-10-19T11:10:33;4.97;;;4.38;;
33421;SDS011;19763;55.798;37.782;2023-10-19T11:15:28;4.80;;;4.30;;
33421;SDS011;19763;55.798;37.782;2023-10-19T11:17:54;4.07;;;3.72;;
33421;SDS011;19763;55.798;37.782;2023-10-19T11:20:21;6.57;;;4.30;;
33421;SDS011;19763;55.798;37.782;2023-10-19T11:22:48;3.42;;;2.75;;
33421;SDS011;19763;55.798;37.782;2023-10-19T11:25:21;4.95;;;3.47;;
33421;SDS011;19763;55.798;37.782;2023-10-19T11:27:48;3.28;;;2.97;;
33421;SDS011;19763;55.798;37.782;2023-10-19T11:30:22;4.03;;;3.63;;
33421;SDS011;19763;55.798;37.782;2023-10-19T11:32:49;4.53;;;3.15;;
33421;SDS011;19763;55.798;37.782;2023-10-19T11:35:18;4.75;;;3.80;;
33421;SDS011;19763;55.798;37.782;2023-10-19T11:37:45;4.25;;;3.42;;
33421;SDS011;19763;55.798;37.782;2023-10-19T11:40:15;4.00;;;3.58;;
33421;SDS011;19763;55.798;37.782;2023-10-19T11:42:42;4.32;;;3.80;;
33421;SDS011;19763;55.798;37.782;2023-10-19T11:45:08;5.30;;;3.97;;
33421;SDS011;19763;55.798;37.782;2023-10-19T11:47:34;4.00;;;3.60;;
33421;SDS011;19763;55.798;37.782;2023-10-19T11:50:00;4.57;;;3.60;;
33421;SDS011;19763;55.798;37.782;2023-10-19T11:52:25;3.55;;;3.25;;
33421;SDS011;19763;55.798;37.782;2023-10-19T11:54:53;6.55;;;4.30;;
33421;SDS011;19763;55.798;37.782;2023-10-19T11:57:19;5.63;;;4.07;;
33421;SDS011;19763;55.798;37.782;2023-10-19T11:59:45;6.97;;;4.05;;
33421;SDS011;19763;55.798;37.782;2023-10-19T12:02:10;5.53;;;4.13;;
33421;SDS011;19763;55.798;37.782;2023-10-19T12:04:37;4.68;;;4.10;;
33421;SDS011;19763;55.798;37.782;2023-10-19T12:07:02;6.50;;;4.60;;
33421;SDS011;19763;55.798;37.782;2023-10-19T12:09:29;5.82;;;4.05;;
33421;SDS011;19763;55.798;37.782;2023-10-19T12:11:55;4.50;;;3.80;;
33421;SDS011;19763;55.798;37.782;2023-10-19T12:14:21;6.10;;;4.35;;
33421;SDS011;19763;55.798;37.782;2023-10-19T12:16:48;4.22;;;3.88;;
33421;SDS011;19763;55.798;37.782;2023-10-19T12:19:14;5.53;;;3.92;;
33421;SDS011;19763;55.798;37.782;2023-10-19T12:21:41;4.40;;;4.00;;
33421;SDS011;19763;55.798;37.782;2023-10-19T12:24:07;4.78;;;4.03;;
33421;SDS011;19763;55.798;37.782;2023-10-19T12:26:33;5.10;;;4.07;;
33421;SDS011;19763;55.798;37.782;2023-10-19T12:28:59;4.70;;;4.28;;
33421;SDS011;19763;55.798;37.782;2023-10-19T12:31:25;5.72;;;3.88;;
33421;SDS011;19763;55.798;37.782;2023-10-19T12:33:50;5.18;;;3.80;;
33421;SDS011;19763;55.798;37.782;2023-10-19T12:36:16;4.93;;;4.07;;
33421;SDS011;19763;55.798;37.782;2023-10-19T12:38:55;7.15;;;4.68;;
33421;SDS011;19763;55.798;37.782;2023-10-19T12:41:21;5.88;;;4.50;;
33421;SDS011;19763;55.798;37.782;2023-10-19T12:43:47;4.70;;;4.20;;
33421;SDS011;19763;55.798;37.782;2023-10-19T12:46:14;5.00;;;4.53;;
33421;SDS011;19763;55.798;37.782;2023-10-19T12:48:42;7.13;;;4.57;;
33421;SDS011;19763;55.798;37.782;2023-10-19T12:51:08;5.03;;;4.53;;
33421;SDS011;19763;55.798;37.782;2023-10-19T12:53:37;5.15;;;4.65;;
33421;SDS011;19763;55.798;37.782;2023-10-19T12:56:04;6.00;;;5.40;;
33421;SDS011;19763;55.798;37.782;2023-10-19T12:58:35;5.88;;;5.28;;
33421;SDS011;19763;55.798;37.782;2023-10-19T13:01:02;7.97;;;5.38;;
33421;SDS011;19763;55.798;37.782;2023-10-19T13:03:30;6.22;;;5.18;;
33421;SDS011;19763;55.798;37.782;2023-10-19T13:05:57;5.95;;;5.28;;
33421;SDS011;19763;55.798;37.782;2023-10-19T13:08:23;5.63;;;5.07;;
33421;SDS011;19763;55.798;37.782;2023-10-19T13:10:53;5.68;;;5.10;;
33421;SDS011;19763;55.798;37.782;2023-10-19T13:13:19;6.07;;;5.22;;
33421;SDS011;19763;55.798;37.782;2023-10-19T13:15:49;6.75;;;5.65;;
33421;SDS011;19763;55.798;37.782;2023-10-19T13:18:15;5.85;;;5.20;;
33421;SDS011;19763;55.798;37.782;2023-10-19T13:20:53;9.93;;;6.30;;
33421;SDS011;19763;55.798;37.782;2023-10-19T13:23:19;6.93;;;5.88;;
33421;SDS011;19763;55.798;37.782;2023-10-19T13:25:49;7.63;;;5.85;;
33421;SDS011;19763;55.798;37.782;2023-10-19T13:28:16;8.07;;;5.65;;
33421;SDS011;19763;55.798;37.782;2023-10-19T13:30:45;6.82;;;5.97;;
33421;SDS011;19763;55.798;37.782;2023-10-19T13:33:15;7.18;;;4.78;;
33421;SDS011;19763;55.798;37.782;2023-10-19T13:35:43;5.43;;;4.55;;
33421;SDS011;19763;55.798;37.782;2023-10-19T13:38:10;4.70;;;3.95;;
33421;SDS011;19763;55.798;37.782;2023-10-19T13:40:39;6.47;;;4.00;;
33421;SDS011;19763;55.798;37.782;2023-10-19T13:43:05;5.03;;;4.05;;
33421;SDS011;19763;55.798;37.782;2023-10-19T13:45:51;6.22;;;4.10;;
33421;SDS011;19763;55.798;37.782;2023-10-19T13:48:19;4.85;;;4.35;;
33421;SDS011;19763;55.798;37.782;2023-10-19T13:50:45;7.75;;;5.00;;
33421;SDS011;19763;55.798;37.782;2023-10-19T13:53:15;6.07;;;4.40;;
33421;SDS011;19763;55.798;37.782;2023-10-19T13:55:42;4.25;;;3.80;;
33421;SDS011;19763;55.798;37.782;2023-10-19T13:58:08;4.90;;;4.13;;
33421;SDS011;19763;55.798;37.782;2023-10-19T14:00:34;6.43;;;4.18;;
33421;SDS011;19763;55.798;37.782;2023-10-19T14:03:00;5.30;;;4.70;;
33421;SDS011;19763;55.798;37.782;2023-10-19T14:05:27;5.05;;;4.50;;
33421;SDS011;19763;55.798;37.782;2023-10-19T14:07:54;6.93;;;4.32;;
33421;SDS011;19763;55.798;37.782;2023-10-19T14:10:20;6.35;;;4.30;;
33421;SDS011;19763;55.798;37.782;2023-10-19T14:12:47;7.78;;;4.57;;
33421;SDS011;19763;55.798;37.782;2023-10-19T14:15:15;5.15;;;4.45;;
33421;SDS011;19763;55.798;37.782;2023-10-19T14:17:45;5.80;;;4.65;;
33421;SDS011;19763;55.798;37.782;2023-10-19T14:20:13;7.13;;;5.13;;
33421;SDS011;19763;55.798;37.782;2023-10-19T14:22:46;6.75;;;5.20;;
33421;SDS011;19763;55.798;37.782;2023-10-19T14:25:14;5.82;;;5.13;;
33421;SDS011;19763;55.798;37.782;2023-10-19T14:27:45;6.25;;;5.40;;
33421;SDS011;19763;55.798;37.782;2023-10-19T14:32:40;7.65;;;6.65;;
33421;SDS011;19763;55.798;37.782;2023-10-19T14:35:07;9.93;;;6.63;;
33421;SDS011;19763;55.798;37.782;2023-10-19T14:37:38;8.45;;;6.38;;
33421;SDS011;19763;55.798;37.782;2023-10-19T14:40:08;12.90;;;6.82;;
33421;SDS011;19763;55.798;37.782;2023-10-19T14:42:38;7.22;;;5.53;;
33421;SDS011;19763;55.798;37.782;2023-10-19T14:45:14;7.13;;;5.72;;
33421;SDS011;19763;55.798;37.782;2023-10-19T14:47:41;6.68;;;5.97;;
33421;SDS011;19763;55.798;37.782;2023-10-19T14:50:15;11.27;;;7.85;;
33421;SDS011;19763;55.798;37.782;2023-10-19T14:52:44;9.43;;;6.43;;
33421;SDS011;19763;55.798;37.782;2023-10-19T14:55:12;9.85;;;6.47;;
33421;SDS011;19763;55.798;37.782;2023-10-19T14:57:40;7.55;;;5.82;;
33421;SDS011;19763;55.798;37.782;2023-10-19T15:00:08;9.77;;;5.82;;
33421;SDS011;19763;55.798;37.782;2023-10-19T15:02:47;8.52;;;5.95;;
33421;SDS011;19763;55.798;37.782;2023-10-19T15:05:15;9.73;;;5.47;;
33421;SDS011;19763;55.798;37.782;2023-10-19T15:07:42;10.65;;;5.97;;
33421;SDS011;19763;55.798;37.782;2023-10-19T15:10:17;8.80;;;5.97;;
33421;SDS011;19763;55.798;37.782;2023-10-19T15:12:51;8.65;;;5.80;;
33421;SDS011;19763;55.798;37.782;2023-10-19T15:15:28;8.75;;;5.95;;
33421;SDS011;19763;55.798;37.782;2023-10-19T15:17:55;8.02;;;6.63;;